sensor_id;sensor_type;location;lat;lon;timestamp;pressure;altitude;pressure_sealevel;temperature;humidity
32320;BME280;19080;51.750;5.888;2024-03-08T00:00:07;101648.72;;;3.31;100.00
32320;BME280;19080;51.750;5.888;2024-03-08T00:02:45;101631.47;;;3.19;100.00
32320;BME280;19080;51.750;5.888;2024-03-08T00:05:13;101622.59;;;3.17;100.00
32320;BME280;19080;51.750;5.888;2024-03-08T00:07:41;101636.34;;;3.28;100.00
32320;BME280;19080;51.750;5.888;2024-03-08T00:10:10;101615.47;;;3.15;100.00
32320;BME280;19080;51.750;5.888;2024-03-08T00:12:43;101638.97;;;3.28;100.00
32320;BME280;19080;51.750;5.888;2024-03-08T00:15:11;101610.78;;;3.09;100.00
32320;BME280;19080;51.750;5.888;2024-03-08T00:17:42;101622.69;;;3.19;100.00
32320;BME280;19080;51.750;5.888;2024-03-08T00:20:10;101637.88;;;3.24;100.00
32320;BME280;19080;51.750;5.888;2024-03-08T00:22:38;101625.22;;;3.17;100.00
32320;BME280;19080;51.750;5.888;2024-03-08T00:25:06;101621.88;;;3.20;100.00
32320;BME280;19080;51.750;5.888;2024-03-08T00:27:36;101627.03;;;3.18;100.00
32320;BME280;19080;51.750;5.888;2024-03-08T00:30:04;101628.84;;;3.19;100.00
32320;BME280;19080;51.750;5.888;2024-03-08T00:32:32;101591.78;;;2.99;100.00
32320;BME280;19080;51.750;5.888;2024-03-08T00:34:59;101596.06;;;2.97;100.00
32320;BME280;19080;51.750;5.888;2024-03-08T00:37:26;101622.06;;;3.08;100.00
32320;BME280;19080;51.750;5.888;2024-03-08T00:39:53;101592.53;;;2.96;100.00
32320;BME280;19080;51.750;5.888;2024-03-08T00:42:20;101615.03;;;3.07;100.00
32320;BME280;19080;51.750;5.888;2024-03-08T00:44:48;101598.38;;;3.07;100.00
32320;BME280;19080;51.750;5.888;2024-03-08T00:47:18;101613.22;;;3.06;100.00
32320;BME280;19080;51.750;5.888;2024-03-08T00:49:44;101595.41;;;3.01;100.00
32320;BME280;19080;51.750;5.888;2024-03-08T00:52:11;101554.94;;;2.81;100.00
32320;BME280;19080;51.750;5.888;2024-03-08T00:54:38;101555.09;;;2.84;100.00
32320;BME280;19080;51.750;5.888;2024-03-08T00:57:05;101592.88;;;3.02;100.00
32320;BME280;19080;51.750;5.888;2024-03-08T00:59:33;101597.94;;;2.99;100.00
32320;BME280;19080;51.750;5.888;2024-03-08T01:02:01;101560.44;;;2.85;100.00
32320;BME280;19080;51.750;5.888;2024-03-08T01:04:28;101551.50;;;2.82;100.00
32320;BME280;19080;51.750;5.888;2024-03-08T01:06:58;101565.59;;;2.84;100.00
32320;BME280;19080;51.750;5.888;2024-03-08T01:09:25;101580.41;;;2.98;100.00
32320;BME280;19080;51.750;5.888;2024-03-08T01:11:54;101568.84;;;2.94;100.00
32320;BME280;19080;51.750;5.888;2024-03-08T01:14:24;101573.91;;;2.91;100.00
32320;BME280;19080;51.750;5.888;2024-03-08T01:16:55;101557.28;;;2.91;100.00
32320;BME280;19080;51.750;5.888;2024-03-08T01:19:23;101554.47;;;2.88;100.00
32320;BME280;19080;51.750;5.888;2024-03-08T01:21:50;101555.47;;;2.90;100.00
32320;BME280;19080;51.750;5.888;2024-03-08T01:24:17;101550.03;;;2.87;100.00
32320;BME280;19080;51.750;5.888;2024-03-08T01:26:44;101510.41;;;2.66;100.00
32320;BME280;19080;51.750;5.888;2024-03-08T01:29:11;101546.34;;;2.83;100.00
32320;BME280;19080;51.750;5.888;2024-03-08T01:31:38;101531.25;;;2.79;100.00
32320;BME280;19080;51.750;5.888;2024-03-08T01:34:05;101536.66;;;2.82;100.00
32320;BME280;19080;51.750;5.888;2024-03-08T01:36:31;101543.91;;;2.86;100.00
32320;BME280;19080;51.750;5.888;2024-03-08T01:38:58;101530.34;;;2.79;100.00
32320;BME280;19080;51.750;5.888;2024-03-08T01:41:25;101534.59;;;2.77;100.00
32320;BME280;19080;51.750;5.888;2024-03-08T01:43:56;101533.44;;;2.72;100.00
32320;BME280;19080;51.750;5.888;2024-03-08T01:46:23;101541.91;;;2.82;100.00
32320;BME280;19080;51.750;5.888;2024-03-08T01:48:50;101532.53;;;2.71;100.00
32320;BME280;19080;51.750;5.888;2024-03-08T01:51:18;101535.06;;;2.70;100.00
32320;BME280;19080;51.750;5.888;2024-03-08T01:53:46;101522.41;;;2.63;100.00
32320;BME280;19080;51.750;5.888;2024-03-08T01:56:13;101529.09;;;2.72;100.00
32320;BME280;19080;51.750;5.888;2024-03-08T01:58:41;101520.44;;;2.58;100.00
32320;BME280;19080;51.750;5.888;2024-03-08T02:01:12;101527.47;;;2.59;100.00
32320;BME280;19080;51.750;5.888;2024-03-08T02:03:43;101495.16;;;2.44;100.00
32320;BME280;19080;51.750;5.888;2024-03-08T02:06:12;101530.91;;;2.58;100.00
32320;BME280;19080;51.750;5.888;2024-03-08T02:08:42;101492.09;;;2.37;100.00
32320;BME280;19080;51.750;5.888;2024-03-08T02:11:11;101516.28;;;2.47;100.00
32320;BME280;19080;51.750;5.888;2024-03-08T02:13:38;101507.63;;;2.48;100.00
32320;BME280;19080;51.750;5.888;2024-03-08T02:16:05;101501.75;;;2.52;100.00
32320;BME280;19080;51.750;5.888;2024-03-08T02:18:34;101461.84;;;2.27;100.00
32320;BME280;19080;51.750;5.888;2024-03-08T02:21:02;101487.22;;;2.43;100.00
32320;BME280;19080;51.750;5.888;2024-03-08T02:23:30;101475.47;;;2.36;100.00
32320;BME280;19080;51.750;5.888;2024-03-08T02:25:57;101473.66;;;2.35;100.00
32320;BME280;19080;51.750;5.888;2024-03-08T02:28:24;101467.25;;;2.30;100.00
32320;BME280;19080;51.750;5.888;2024-03-08T02:30:55;101503.38;;;2.50;100.00
32320;BME280;19080;51.750;5.888;2024-03-08T02:33:25;101493.88;;;2.52;100.00
32320;BME280;19080;51.750;5.888;2024-03-08T02:35:53;101495.50;;;2.50;100.00
32320;BME280;19080;51.750;5.888;2024-03-08T02:38:21;101457.59;;;2.29;100.00
32320;BME280;19080;51.750;5.888;2024-03-08T02:40:50;101488.28;;;2.46;100.00
32320;BME280;19080;51.750;5.888;2024-03-08T02:43:18;101485.66;;;2.46;100.00
32320;BME280;19080;51.750;5.888;2024-03-08T02:45:46;101482.59;;;2.39;100.00
32320;BME280;19080;51.750;5.888;2024-03-08T02:48:13;101436.00;;;2.18;100.00
32320;BME280;19080;51.750;5.888;2024-03-08T02:50:41;101472.03;;;2.37;100.00
32320;BME280;19080;51.750;5.888;2024-03-08T02:53:09;101473.84;;;2.38;100.00
32320;BME280;19080;51.750;5.888;2024-03-08T02:55:38;101427.72;;;2.11;100.00
32320;BME280;19080;51.750;5.888;2024-03-08T02:58:05;101464.81;;;2.33;100.00
32320;BME280;19080;51.750;5.888;2024-03-08T03:00:35;101440.44;;;2.19;100.00
32320;BME280;19080;51.750;5.888;2024-03-08T03:03:02;101476.38;;;2.37;100.00
32320;BME280;19080;51.750;5.888;2024-03-08T03:05:30;101471.41;;;2.26;100.00
32320;BME280;19080;51.750;5.888;2024-03-08T03:07:57;101463.66;;;2.28;100.00
32320;BME280;19080;51.750;5.888;2024-03-08T03:10:24;101448.84;;;2.14;100.00
32320;BME280;19080;51.750;5.888;2024-03-08T03:12:52;101423.75;;;2.03;100.00
32320;BME280;19080;51.750;5.888;2024-03-08T03:15:19;101461.47;;;2.21;100.00
32320;BME280;19080;51.750;5.888;2024-03-08T03:17:47;101454.88;;;2.13;100.00
32320;BME280;19080;51.750;5.888;2024-03-08T03:20:14;101461.31;;;2.18;100.00
32320;BME280;19080;51.750;5.888;2024-03-08T03:22:42;101454.53;;;2.07;100.00
32320;BME280;19080;51.750;5.888;2024-03-08T03:25:19;101459.94;;;2.10;100.00
32320;BME280;19080;51.750;5.888;2024-03-08T03:27:52;101449.28;;;2.07;100.00
32320;BME280;19080;51.750;5.888;2024-03-08T03:30:23;101456.69;;;2.14;100.00
32320;BME280;19080;51.750;5.888;2024-03-08T03:32:53;101447.84;;;2.12;100.00
32320;BME280;19080;51.750;5.888;2024-03-08T03:35:21;101418.78;;;1.92;100.00
32320;BME280;19080;51.750;5.888;2024-03-08T03:37:49;101414.34;;;1.91;100.00
32320;BME280;19080;51.750;5.888;2024-03-08T03:40:29;101448.22;;;2.18;100.00
32320;BME280;19080;51.750;5.888;2024-03-08T03:42:55;101439.19;;;2.13;100.00
32320;BME280;19080;51.750;5.888;2024-03-08T03:45:23;101454.72;;;2.10;100.00
32320;BME280;19080;51.750;5.888;2024-03-08T03:47:50;101452.53;;;2.03;100.00
32320;BME280;19080;51.750;5.888;2024-03-08T03:50:18;101434.66;;;1.95;100.00
32320;BME280;19080;51.750;5.888;2024-03-08T03:52:50;101439.91;;;1.95;100.00
32320;BME280;19080;51.750;5.888;2024-03-08T03:55:16;101443.16;;;1.91;100.00
32320;BME280;19080;51.750;5.888;2024-03-08T03:57:43;101444.22;;;1.95;100.00
32320;BME280;19080;51.750;5.888;2024-03-08T04:00:12;101432.69;;;1.91;100.00
32320;BME280;19080;51.750;5.888;2024-03-08T04:02:40;101437.19;;;1.94;100.00
32320;BME280;19080;51.750;5.888;2024-03-08T04:05:08;101414.44;;;1.78;100.00
32320;BME280;19080;51.750;5.888;2024-03-08T04:07:36;101435.56;;;1.96;100.00
32320;BME280;19080;51.750;5.888;2024-03-08T04:10:04;101433.59;;;1.92;100.00
32320;BME280;19080;51.750;5.888;2024-03-08T04:12:33;101425.81;;;1.93;100.00
32320;BME280;19080;51.750;5.888;2024-03-08T04:15:00;101380.00;;;1.71;100.00
32320;BME280;19080;51.750;5.888;2024-03-08T04:17:27;101425.81;;;1.93;100.00
32320;BME280;19080;51.750;5.888;2024-03-08T04:19:54;101415.00;;;1.87;100.00
32320;BME280;19080;51.750;5.888;2024-03-08T04:22:21;101405.50;;;1.89;100.00
32320;BME280;19080;51.750;5.888;2024-03-08T04:24:48;101413.72;;;1.95;100.00
32320;BME280;19080;51.750;5.888;2024-03-08T04:27:15;101379.44;;;1.76;100.00
32320;BME280;19080;51.750;5.888;2024-03-08T04:29:41;101383.03;;;1.78;100.00
32320;BME280;19080;51.750;5.888;2024-03-08T04:32:09;101401.09;;;1.88;100.00
32320;BME280;19080;51.750;5.888;2024-03-08T04:34:36;101409.13;;;1.91;100.00
32320;BME280;19080;51.750;5.888;2024-03-08T04:37:03;101403.63;;;1.87;100.00
32320;BME280;19080;51.750;5.888;2024-03-08T04:39:31;101408.13;;;1.89;100.00
32320;BME280;19080;51.750;5.888;2024-03-08T04:42:01;101397.03;;;1.79;100.00
32320;BME280;19080;51.750;5.888;2024-03-08T04:44:32;101367.09;;;1.59;100.00
32320;BME280;19080;51.750;5.888;2024-03-08T04:47:00;101375.22;;;1.63;100.00
32320;BME280;19080;51.750;5.888;2024-03-08T04:49:27;101396.94;;;1.77;100.00
32320;BME280;19080;51.750;5.888;2024-03-08T04:51:55;101403.25;;;1.81;100.00
32320;BME280;19080;51.750;5.888;2024-03-08T04:54:21;101353.66;;;1.53;100.00
32320;BME280;19080;51.750;5.888;2024-03-08T04:56:48;101376.75;;;1.60;100.00
32320;BME280;19080;51.750;5.888;2024-03-08T04:59:15;101407.06;;;1.71;100.00
32320;BME280;19080;51.750;5.888;2024-03-08T05:01:41;101398.41;;;1.72;100.00
32320;BME280;19080;51.750;5.888;2024-03-08T05:04:09;101359.78;;;1.53;100.00
32320;BME280;19080;51.750;5.888;2024-03-08T05:06:36;101394.31;;;1.77;100.00
32320;BME280;19080;51.750;5.888;2024-03-08T05:09:03;101356.28;;;1.53;100.00
32320;BME280;19080;51.750;5.888;2024-03-08T05:11:43;101392.38;;;1.73;100.00
32320;BME280;19080;51.750;5.888;2024-03-08T05:14:11;101369.91;;;1.62;100.00
32320;BME280;19080;51.750;5.888;2024-03-08T05:16:43;101356.09;;;1.50;100.00
32320;BME280;19080;51.750;5.888;2024-03-08T05:19:10;101378.47;;;1.59;100.00
32320;BME280;19080;51.750;5.888;2024-03-08T05:21:37;101387.31;;;1.61;100.00
32320;BME280;19080;51.750;5.888;2024-03-08T05:24:04;101366.66;;;1.51;100.00
32320;BME280;19080;51.750;5.888;2024-03-08T05:26:31;101383.63;;;1.58;100.00
32320;BME280;19080;51.750;5.888;2024-03-08T05:28:59;101376.75;;;1.60;100.00
32320;BME280;19080;51.750;5.888;2024-03-08T05:31:26;101349.69;;;1.45;100.00
32320;BME280;19080;51.750;5.888;2024-03-08T05:33:54;101380.00;;;1.56;100.00
32320;BME280;19080;51.750;5.888;2024-03-08T05:36:22;101379.81;;;1.53;100.00
32320;BME280;19080;51.750;5.888;2024-03-08T05:38:48;101347.50;;;1.38;100.00
32320;BME280;19080;51.750;5.888;2024-03-08T05:41:17;101370.59;;;1.45;100.00
32320;BME280;19080;51.750;5.888;2024-03-08T05:43:44;101380.44;;;1.49;100.00
32320;BME280;19080;51.750;5.888;2024-03-08T05:46:15;101362.50;;;1.40;100.00
32320;BME280;19080;51.750;5.888;2024-03-08T05:48:43;101362.94;;;1.48;100.00
32320;BME280;19080;51.750;5.888;2024-03-08T05:51:10;101358.88;;;1.38;100.00
32320;BME280;19080;51.750;5.888;2024-03-08T05:53:36;101323.50;;;1.15;100.00
32320;BME280;19080;51.750;5.888;2024-03-08T05:56:03;101356.06;;;1.35;100.00
32320;BME280;19080;51.750;5.888;2024-03-08T05:58:30;101362.66;;;1.43;100.00
32320;BME280;19080;51.750;5.888;2024-03-08T06:00:57;101352.75;;;1.38;100.00
32320;BME280;19080;51.750;5.888;2024-03-08T06:03:24;101354.38;;;1.36;100.00
32320;BME280;19080;51.750;5.888;2024-03-08T06:05:51;101334.78;;;1.29;100.00
32320;BME280;19080;51.750;5.888;2024-03-08T06:08:18;101351.31;;;1.43;100.00
32320;BME280;19080;51.750;5.888;2024-03-08T06:10:45;101316.84;;;1.20;100.00
32320;BME280;19080;51.750;5.888;2024-03-08T06:13:15;101342.28;;;1.38;100.00
32320;BME280;19080;51.750;5.888;2024-03-08T06:15:41;101320.63;;;1.25;100.00
32320;BME280;19080;51.750;5.888;2024-03-08T06:18:08;101334.16;;;1.33;100.00
32320;BME280;19080;51.750;5.888;2024-03-08T06:20:38;101337.31;;;1.42;100.00
32320;BME280;19080;51.750;5.888;2024-03-08T06:23:05;101337.50;;;1.45;100.00
32320;BME280;19080;51.750;5.888;2024-03-08T06:25:31;101332.19;;;1.44;100.00
32320;BME280;19080;51.750;5.888;2024-03-08T06:27:58;101317.13;;;1.40;100.00
32320;BME280;19080;51.750;5.888;2024-03-08T06:30:25;101334.53;;;1.54;100.00
32320;BME280;19080;51.750;5.888;2024-03-08T06:32:51;101330.38;;;1.57;100.00
32320;BME280;19080;51.750;5.888;2024-03-08T06:35:18;101342.47;;;1.70;100.00
32320;BME280;19080;51.750;5.888;2024-03-08T06:37:46;101338.88;;;1.68;100.00
32320;BME280;19080;51.750;5.888;2024-03-08T06:40:13;101309.63;;;1.60;100.00
32320;BME280;19080;51.750;5.888;2024-03-08T06:42:41;101341.69;;;1.87;100.00
32320;BME280;19080;51.750;5.888;2024-03-08T06:45:08;101336.91;;;1.95;100.00
32320;BME280;19080;51.750;5.888;2024-03-08T06:47:36;101327.34;;;1.95;100.00
32320;BME280;19080;51.750;5.888;2024-03-08T06:50:04;101291.88;;;1.86;100.00
32320;BME280;19080;51.750;5.888;2024-03-08T06:52:31;101298.53;;;1.95;100.00
32320;BME280;19080;51.750;5.888;2024-03-08T06:54:57;101319.06;;;2.19;100.00
32320;BME280;19080;51.750;5.888;2024-03-08T06:57:24;101307.19;;;2.09;100.00
32320;BME280;19080;51.750;5.888;2024-03-08T06:59:51;101313.28;;;2.24;100.00
32320;BME280;19080;51.750;5.888;2024-03-08T07:02:19;101314.78;;;2.36;100.00
32320;BME280;19080;51.750;5.888;2024-03-08T07:04:45;101334.69;;;2.48;100.00
32320;BME280;19080;51.750;5.888;2024-03-08T07:07:12;101318.34;;;3.01;100.00
32320;BME280;19080;51.750;5.888;2024-03-08T07:09:39;101309.34;;;4.35;100.00
32320;BME280;19080;51.750;5.888;2024-03-08T07:12:06;101316.38;;;5.52;100.00
32320;BME280;19080;51.750;5.888;2024-03-08T07:14:33;101311.16;;;6.59;100.00
32320;BME280;19080;51.750;5.888;2024-03-08T07:17:00;101311.59;;;7.19;100.00
32320;BME280;19080;51.750;5.888;2024-03-08T07:19:30;101301.34;;;7.52;100.00
32320;BME280;19080;51.750;5.888;2024-03-08T07:21:57;101318.66;;;7.95;98.59
32320;BME280;19080;51.750;5.888;2024-03-08T07:24:24;101304.28;;;8.69;89.38
32320;BME280;19080;51.750;5.888;2024-03-08T07:27:16;101302.97;;;9.46;79.17
32320;BME280;19080;51.750;5.888;2024-03-08T07:29:44;101292.78;;;9.96;71.55
32320;BME280;19080;51.750;5.888;2024-03-08T07:32:11;101270.47;;;10.22;68.08
32320;BME280;19080;51.750;5.888;2024-03-08T07:34:38;101278.19;;;10.15;65.04
32320;BME280;19080;51.750;5.888;2024-03-08T07:37:06;101263.16;;;10.53;63.44
32320;BME280;19080;51.750;5.888;2024-03-08T07:39:40;101266.63;;;10.91;60.82
32320;BME280;19080;51.750;5.888;2024-03-08T07:42:07;101289.22;;;11.59;59.47
32320;BME280;19080;51.750;5.888;2024-03-08T07:44:34;101278.69;;;11.65;57.60
32320;BME280;19080;51.750;5.888;2024-03-08T07:47:00;101278.31;;;11.44;57.03
32320;BME280;19080;51.750;5.888;2024-03-08T07:49:27;101241.25;;;11.53;56.58
32320;BME280;19080;51.750;5.888;2024-03-08T07:51:54;101271.53;;;12.13;55.49
32320;BME280;19080;51.750;5.888;2024-03-08T07:54:21;101255.47;;;12.70;54.22
32320;BME280;19080;51.750;5.888;2024-03-08T07:56:47;101248.72;;;12.96;51.33
32320;BME280;19080;51.750;5.888;2024-03-08T07:59:14;101250.50;;;12.97;51.31
32320;BME280;19080;51.750;5.888;2024-03-08T08:01:41;101238.09;;;12.99;50.76
32320;BME280;19080;51.750;5.888;2024-03-08T08:04:08;101247.00;;;13.01;50.62
32320;BME280;19080;51.750;5.888;2024-03-08T08:06:39;101251.19;;;13.58;50.36
32320;BME280;19080;51.750;5.888;2024-03-08T08:09:07;101237.13;;;13.78;49.11
32320;BME280;19080;51.750;5.888;2024-03-08T08:11:55;101252.25;;;13.77;47.85
32320;BME280;19080;51.750;5.888;2024-03-08T08:14:21;101231.91;;;13.96;48.41
32320;BME280;19080;51.750;5.888;2024-03-08T08:16:48;101233.84;;;14.17;46.87
32320;BME280;19080;51.750;5.888;2024-03-08T08:19:16;101223.22;;;14.27;47.09
32320;BME280;19080;51.750;5.888;2024-03-08T08:21:43;101232.41;;;14.74;46.77
32320;BME280;19080;51.750;5.888;2024-03-08T08:24:10;101198.63;;;14.89;45.32
32320;BME280;19080;51.750;5.888;2024-03-08T08:26:37;101236.06;;;14.98;44.77
32320;BME280;19080;51.750;5.888;2024-03-08T08:29:07;101213.81;;;15.07;45.09
32320;BME280;19080;51.750;5.888;2024-03-08T08:31:33;101223.53;;;14.79;45.01
32320;BME280;19080;51.750;5.888;2024-03-08T08:34:00;101205.72;;;14.78;44.98
32320;BME280;19080;51.750;5.888;2024-03-08T08:36:27;101203.72;;;14.41;45.88
32320;BME280;19080;51.750;5.888;2024-03-08T08:38:56;101194.97;;;14.63;44.99
32320;BME280;19080;51.750;5.888;2024-03-08T08:41:25;101206.75;;;15.41;45.22
32320;BME280;19080;51.750;5.888;2024-03-08T08:43:53;101200.53;;;15.63;44.25
32320;BME280;19080;51.750;5.888;2024-03-08T08:46:34;101188.03;;;15.62;43.14
32320;BME280;19080;51.750;5.888;2024-03-08T08:49:07;101184.47;;;15.38;43.63
32320;BME280;19080;51.750;5.888;2024-03-08T08:51:37;101195.19;;;15.54;43.62
32320;BME280;19080;51.750;5.888;2024-03-08T08:54:04;101177.34;;;15.47;43.92
32320;BME280;19080;51.750;5.888;2024-03-08T08:56:36;101189.81;;;15.35;43.14
32320;BME280;19080;51.750;5.888;2024-03-08T08:59:04;101197.66;;;14.68;44.11
32320;BME280;19080;51.750;5.888;2024-03-08T09:01:31;101190.69;;;15.17;43.95
32320;BME280;19080;51.750;5.888;2024-03-08T09:03:58;101171.97;;;15.37;42.76
32320;BME280;19080;51.750;5.888;2024-03-08T09:06:25;101179.09;;;15.30;43.13
32320;BME280;19080;51.750;5.888;2024-03-08T09:08:52;101166.59;;;15.99;42.32
32320;BME280;19080;51.750;5.888;2024-03-08T09:11:19;101175.50;;;16.13;42.23
32320;BME280;19080;51.750;5.888;2024-03-08T09:13:46;101163.91;;;16.10;42.17
32320;BME280;19080;51.750;5.888;2024-03-08T09:16:13;101158.59;;;15.72;42.40
32320;BME280;19080;51.750;5.888;2024-03-08T09:18:40;101159.34;;;16.44;41.93
32320;BME280;19080;51.750;5.888;2024-03-08T09:21:08;101163.84;;;16.36;41.63
32320;BME280;19080;51.750;5.888;2024-03-08T09:23:37;101144.31;;;15.80;41.57
32320;BME280;19080;51.750;5.888;2024-03-08T09:26:04;101153.16;;;16.25;41.15
32320;BME280;19080;51.750;5.888;2024-03-08T09:28:39;101155.88;;;16.08;41.38
32320;BME280;19080;51.750;5.888;2024-03-08T09:31:05;101150.50;;;16.17;41.58
32320;BME280;19080;51.750;5.888;2024-03-08T09:33:32;101145.06;;;16.36;41.39
32320;BME280;19080;51.750;5.888;2024-03-08T09:36:01;101117.25;;;16.72;40.70
32320;BME280;19080;51.750;5.888;2024-03-08T09:38:30;101093.38;;;16.15;40.60
32320;BME280;19080;51.750;5.888;2024-03-08T09:40:57;101126.28;;;16.43;40.99
32320;BME280;19080;51.750;5.888;2024-03-08T09:43:24;101109.22;;;16.64;40.86
32320;BME280;19080;51.750;5.888;2024-03-08T09:45:51;101115.19;;;17.15;40.15
32320;BME280;19080;51.750;5.888;2024-03-08T09:48:18;101119.63;;;17.17;39.64
32320;BME280;19080;51.750;5.888;2024-03-08T09:50:46;101086.53;;;17.18;39.71
32320;BME280;19080;51.750;5.888;2024-03-08T09:53:13;101099.38;;;16.71;39.36
32320;BME280;19080;51.750;5.888;2024-03-08T09:55:40;101114.09;;;17.34;39.51
32320;BME280;19080;51.750;5.888;2024-03-08T09:58:12;101092.38;;;16.41;39.87
32320;BME280;19080;51.750;5.888;2024-03-08T10:00:54;101059.31;;;16.42;40.44
32320;BME280;19080;51.750;5.888;2024-03-08T10:03:24;101060.09;;;16.59;39.82
32320;BME280;19080;51.750;5.888;2024-03-08T10:05:53;101050.31;;;16.52;39.80
32320;BME280;19080;51.750;5.888;2024-03-08T10:08:27;101076.94;;;16.88;39.96
32320;BME280;19080;51.750;5.888;2024-03-08T10:10:56;101049.69;;;17.37;39.72
32320;BME280;19080;51.750;5.888;2024-03-08T10:13:26;101069.34;;;17.39;38.83
32320;BME280;19080;51.750;5.888;2024-03-08T10:15:54;101043.22;;;17.58;37.94
32320;BME280;19080;51.750;5.888;2024-03-08T10:18:21;101046.56;;;16.86;39.13
32320;BME280;19080;51.750;5.888;2024-03-08T10:21:05;101017.53;;;16.07;39.65
32320;BME280;19080;51.750;5.888;2024-03-08T10:23:34;101044.16;;;16.39;39.90
32320;BME280;19080;51.750;5.888;2024-03-08T10:26:11;101042.28;;;16.52;40.33
32320;BME280;19080;51.750;5.888;2024-03-08T10:28:45;101037.59;;;16.90;39.70
32320;BME280;19080;51.750;5.888;2024-03-08T10:31:13;101007.97;;;17.06;39.52
32320;BME280;19080;51.750;5.888;2024-03-08T10:33:45;101015.19;;;16.98;39.24
32320;BME280;19080;51.750;5.888;2024-03-08T10:36:13;101002.56;;;17.09;38.63
32320;BME280;19080;51.750;5.888;2024-03-08T10:38:43;101016.25;;;16.78;38.85
32320;BME280;19080;51.750;5.888;2024-03-08T10:41:13;101019.88;;;16.68;39.07
32320;BME280;19080;51.750;5.888;2024-03-08T10:49:32;101020.03;;;16.39;40.63
32320;BME280;19080;51.750;5.888;2024-03-08T10:52:03;101002.34;;;16.06;40.20
32320;BME280;19080;51.750;5.888;2024-03-08T10:54:31;101005.22;;;15.51;40.14
32320;BME280;19080;51.750;5.888;2024-03-08T10:56:59;100995.47;;;15.23;41.43
32320;BME280;19080;51.750;5.888;2024-03-08T10:59:26;100989.88;;;15.99;41.50
32320;BME280;19080;51.750;5.888;2024-03-08T11:01:53;100982.94;;;15.43;40.65
32320;BME280;19080;51.750;5.888;2024-03-08T11:04:20;100993.69;;;15.14;41.14
32320;BME280;19080;51.750;5.888;2024-03-08T11:06:50;100997.28;;;14.84;42.42
32320;BME280;19080;51.750;5.888;2024-03-08T11:09:31;100972.25;;;15.43;41.75
32320;BME280;19080;51.750;5.888;2024-03-08T11:14:53;100970.53;;;15.15;41.96
32320;BME280;19080;51.750;5.888;2024-03-08T11:20:00;100975.81;;;15.45;41.51
32320;BME280;19080;51.750;5.888;2024-03-08T11:22:34;100935.78;;;14.98;41.26
32320;BME280;19080;51.750;5.888;2024-03-08T11:25:05;100934.91;;;14.70;42.64
32320;BME280;19080;51.750;5.888;2024-03-08T11:27:37;100940.25;;;14.85;42.34
32320;BME280;19080;51.750;5.888;2024-03-08T11:30:05;100921.50;;;15.14;41.49
32320;BME280;19080;51.750;5.888;2024-03-08T11:32:45;100942.72;;;15.71;41.17
32320;BME280;19080;51.750;5.888;2024-03-08T11:35:20;100916.84;;;15.73;41.99
32320;BME280;19080;51.750;5.888;2024-03-08T11:37:47;100930.94;;;16.05;40.57
32320;BME280;19080;51.750;5.888;2024-03-08T11:40:15;100934.53;;;16.01;40.94
32320;BME280;19080;51.750;5.888;2024-03-08T11:42:46;100908.03;;;15.49;40.58
32320;BME280;19080;51.750;5.888;2024-03-08T11:45:18;100930.31;;;15.56;40.51
32320;BME280;19080;51.750;5.888;2024-03-08T11:47:48;100928.53;;;15.52;40.93
32320;BME280;19080;51.750;5.888;2024-03-08T11:50:17;100891.16;;;15.26;41.30
32320;BME280;19080;51.750;5.888;2024-03-08T11:52:47;100921.44;;;15.37;41.35
32320;BME280;19080;51.750;5.888;2024-03-08T11:55:14;100920.66;;;14.95;41.76
32320;BME280;19080;51.750;5.888;2024-03-08T11:57:41;100908.19;;;14.85;42.15
32320;BME280;19080;51.750;5.888;2024-03-08T12:00:16;100881.41;;;15.13;42.28
32320;BME280;19080;51.750;5.888;2024-03-08T12:03:06;100880.47;;;15.26;41.12
32320;BME280;19080;51.750;5.888;2024-03-08T12:05:34;100873.25;;;15.52;41.23
32320;BME280;19080;51.750;5.888;2024-03-08T12:08:04;100908.09;;;15.25;41.18
32320;BME280;19080;51.750;5.888;2024-03-08T12:10:34;100872.53;;;15.02;41.38
32320;BME280;19080;51.750;5.888;2024-03-08T12:13:04;100870.75;;;14.94;41.95
32320;BME280;19080;51.750;5.888;2024-03-08T12:15:39;100902.69;;;15.43;41.43
32320;BME280;19080;51.750;5.888;2024-03-08T12:18:06;100851.06;;;15.23;41.69
32320;BME280;19080;51.750;5.888;2024-03-08T12:20:34;100870.66;;;15.26;41.42
32320;BME280;19080;51.750;5.888;2024-03-08T12:23:00;100863.56;;;15.22;41.32
32320;BME280;19080;51.750;5.888;2024-03-08T12:25:31;100866.28;;;14.98;41.27
32320;BME280;19080;51.750;5.888;2024-03-08T12:28:12;100870.69;;;15.22;41.64
32320;BME280;19080;51.750;5.888;2024-03-08T12:30:51;100861.53;;;15.72;41.06
32320;BME280;19080;51.750;5.888;2024-03-08T12:33:20;100861.53;;;15.76;41.24
32320;BME280;19080;51.750;5.888;2024-03-08T12:35:54;100865.91;;;15.86;41.31
32320;BME280;19080;51.750;5.888;2024-03-08T12:38:23;100857.00;;;15.87;40.77
32320;BME280;19080;51.750;5.888;2024-03-08T12:40:59;100842.56;;;16.10;40.52
32320;BME280;19080;51.750;5.888;2024-03-08T12:43:27;100828.38;;;15.95;40.61
32320;BME280;19080;51.750;5.888;2024-03-08T12:45:58;100800.00;;;15.69;40.25
32320;BME280;19080;51.750;5.888;2024-03-08T12:48:25;100835.72;;;15.66;41.19
32320;BME280;19080;51.750;5.888;2024-03-08T12:50:52;100807.34;;;15.36;41.43
32320;BME280;19080;51.750;5.888;2024-03-08T12:53:20;100834.97;;;15.38;41.82
32320;BME280;19080;51.750;5.888;2024-03-08T12:55:47;100825.25;;;15.13;41.71
32320;BME280;19080;51.750;5.888;2024-03-08T12:58:14;100820.78;;;15.19;42.05
32320;BME280;19080;51.750;5.888;2024-03-08T13:00:43;100787.84;;;15.10;41.81
32320;BME280;19080;51.750;5.888;2024-03-08T13:03:10;100810.03;;;15.30;41.62
32320;BME280;19080;51.750;5.888;2024-03-08T13:05:38;100800.34;;;15.05;42.14
32320;BME280;19080;51.750;5.888;2024-03-08T13:08:07;100781.63;;;15.05;42.36